Time;durP1;ratioP1;P1;durP2;ratioP2;P2;SDS_P1;SDS_P2;PMS_P1;PMS_P2;Temp;Humidity;BMP_temperature;BMP_pressure;BME280_temperature;BME280_humidity;BME280_pressure;Samples;Min_cycle;Max_cycle;Signal;HPM_P1;HPM_P2
2021/01/13 10:25:10;;;;;;;21.02;8.32;;;;;;;2.31;86.46;100446.56;5053276;27;20443;-75
2021/01/13 10:27:44;;;;;;;27.90;8.45;;;;;;;2.27;86.31;100429.97;5032812;28;20060;-74
2021/01/13 10:30:11;;;;;;;32.85;8.52;;;;;;;2.33;85.98;100425.47;5032742;28;20053;-78
2021/01/13 10:32:47;;;;;;;25.90;8.57;;;;;;;2.36;87.08;100417.50;5032764;28;20132;-75
2021/01/13 10:35:15;;;;;;;29.08;8.40;;;;;;;2.38;85.86;100415.69;5032942;28;20060;-75
2021/01/13 10:37:52;;;;;;;20.58;8.02;;;;;;;2.36;85.54;100412.22;5040950;28;20064;-77
2021/01/13 10:40:20;;;;;;;22.50;7.35;;;;;;;2.46;86.47;100411.13;5037696;28;20033;-76
2021/01/13 10:42:53;;;;;;;23.20;7.55;;;;;;;2.49;85.98;100404.88;5031292;28;20029;-78
2021/01/13 10:45:20;;;;;;;32.50;8.52;;;;;;;2.49;84.91;100412.78;5068515;28;20108;-76
2021/01/13 10:47:56;;;;;;;19.48;7.22;;;;;;;2.53;85.37;100415.34;5045032;28;20054;-80
2021/01/13 10:50:40;;;;;;;14.52;5.40;;;;;;;2.60;84.36;100397.59;5022633;28;20053;-79
2021/01/13 10:53:07;;;;;;;22.83;7.68;;;;;;;2.71;85.86;100402.63;5025794;28;20046;-78
2021/01/13 10:55:43;;;;;;;18.02;8.57;;;;;;;2.85;84.70;100392.59;5024413;28;20053;-78
2021/01/13 10:58:11;;;;;;;17.48;6.90;;;;;;;3.03;84.48;100398.31;5017746;28;20053;-78
2021/01/13 11:00:37;;;;;;;19.58;6.22;;;;;;;2.85;83.77;100381.19;5011836;28;20054;-78
2021/01/13 11:03:04;;;;;;;19.67;7.00;;;;;;;2.92;84.77;100390.69;5030906;28;20047;-78
2021/01/13 11:05:34;;;;;;;21.67;6.75;;;;;;;2.85;84.62;100379.41;4989096;28;20050;-76
2021/01/13 11:08:03;;;;;;;19.30;7.22;;;;;;;2.84;83.97;100380.31;5003092;28;20046;-77
2021/01/13 11:10:29;;;;;;;24.00;6.60;;;;;;;2.91;84.07;100386.31;5010363;28;20364;-81
2021/01/13 11:13:08;;;;;;;18.85;6.32;;;;;;;2.96;83.74;100381.75;4993787;28;20128;-77
2021/01/13 11:15:35;;;;;;;19.40;6.90;;;;;;;2.96;84.15;100386.19;5008642;28;20345;-78
2021/01/13 11:18:07;;;;;;;18.75;7.03;;;;;;;3.04;84.11;100383.38;5003063;28;20058;-79
2021/01/13 11:20:34;;;;;;;15.90;6.13;;;;;;;3.03;84.29;100384.25;5001973;28;20042;-80
2021/01/13 11:23:02;;;;;;;17.55;6.93;;;;;;;3.07;84.39;100378.88;5031298;28;21337;-79
2021/01/13 11:25:37;;;;;;;26.63;6.43;;;;;;;3.05;84.55;100375.38;5005391;28;20046;-79
2021/01/13 11:28:06;;;;;;;14.48;6.65;;;;;;;3.08;84.52;100377.97;5001385;28;20074;-79
2021/01/13 11:30:36;;;;;;;19.98;5.88;;;;;;;3.07;83.84;100370.97;5001230;28;20046;-78
2021/01/13 11:33:06;;;;;;;21.02;6.55;;;;;;;3.03;84.42;100364.03;5001587;28;20329;-80
2021/01/13 11:35:50;;;;;;;16.52;6.15;;;;;;;3.08;83.38;100366.53;5001776;28;20061;-81
2021/01/13 11:38:35;;;;;;;18.83;6.55;;;;;;;3.01;83.52;100365.84;4996659;28;20054;-79
2021/01/13 11:41:29;;;;;;;15.85;6.15;;;;;;;3.12;83.42;100361.13;4996981;28;20105;-81
2021/01/13 11:43:58;;;;;;;11.52;5.82;;;;;;;3.20;83.67;100358.31;5017764;28;20043;-81
2021/01/13 11:46:33;;;;;;;17.70;6.65;;;;;;;3.31;83.46;100350.09;4998354;28;20401;-79
2021/01/13 11:49:31;;;;;;;19.90;5.97;;;;;;;3.36;82.52;100342.03;5022103;28;20321;-77
2021/01/13 11:52:08;;;;;;;20.90;5.78;;;;;;;3.39;82.82;100342.81;5021842;28;20416;-80
2021/01/13 11:54:35;;;;;;;22.55;6.50;;;;;;;3.38;82.54;100337.59;4990308;28;20058;-77
2021/01/13 11:57:23;;;;;;;14.95;6.60;;;;;;;3.36;82.75;100336.75;4993669;28;20054;-79
2021/01/13 11:59:51;;;;;;;11.70;5.00;;;;;;;3.40;81.72;100344.53;4996508;28;20177;-80
2021/01/13 12:02:22;;;;;;;16.50;6.38;;;;;;;3.32;82.25;100345.69;4996805;28;20054;-79
2021/01/13 12:04:54;;;;;;;16.00;6.13;;;;;;;3.43;83.10;100334.81;4987967;28;20121;-79
2021/01/13 12:07:26;;;;;;;;;;;;;;;3.42;83.20;100335.75;4997707;28;20121;-80
2021/01/13 12:10:13;;;;;;;13.60;5.95;;;;;;;3.38;83.06;100337.59;4998032;28;19926;-79
2021/01/13 12:12:40;;;;;;;14.63;6.78;;;;;;;3.40;82.21;100322.59;4996089;28;20049;-78
2021/01/13 12:15:12;;;;;;;12.77;5.53;;;;;;;3.35;82.89;100320.09;4987577;28;20053;-79
2021/01/13 12:17:51;;;;;;;17.45;6.15;;;;;;;3.31;83.11;100318.44;4993939;28;20049;-78
2021/01/13 12:20:32;;;;;;;21.17;5.78;;;;;;;3.22;82.63;100319.53;4996869;28;20082;-80
2021/01/13 12:23:28;;;;;;;22.52;7.70;;;;;;;3.05;82.31;100285.72;4987831;28;20061;-80
2021/01/13 12:26:14;;;;;;;12.30;5.22;;;;;;;3.30;83.83;100306.16;5015164;28;20060;-78
2021/01/13 12:28:44;;;;;;;16.05;5.97;;;;;;;3.49;83.12;100305.63;4996075;28;20050;-80
2021/01/13 12:31:14;;;;;;;14.98;6.05;;;;;;;3.61;82.80;100301.75;4995484;28;20081;-79
2021/01/13 12:33:53;;;;;;;14.57;5.20;;;;;;;3.57;81.75;100279.88;4987938;28;20043;-82
2021/01/13 12:36:25;;;;;;;13.60;5.93;;;;;;;3.52;81.72;100287.94;4994450;28;20054;-78
2021/01/13 12:38:53;;;;;;;15.10;5.40;;;;;;;3.45;81.77;100288.13;4996308;28;20355;-79
2021/01/13 12:41:30;;;;;;;20.45;5.50;;;;;;;3.47;82.47;100283.69;4995733;28;20112;-80
2021/01/13 12:44:06;;;;;;;13.95;5.35;;;;;;;3.50;81.85;100271.25;4995925;28;20104;-78
2021/01/13 12:46:34;;;;;;;16.23;5.85;;;;;;;3.63;81.68;100276.16;4995648;28;20054;-79
2021/01/13 12:49:03;;;;;;;14.30;6.05;;;;;;;3.64;82.06;100264.69;4996398;28;20050;-78
2021/01/13 12:51:31;;;;;;;16.00;5.72;;;;;;;3.64;81.80;100267.34;4997662;28;20452;-79
2021/01/13 12:53:59;;;;;;;16.63;5.35;;;;;;;3.68;81.32;100271.63;4995896;28;20050;-78
2021/01/13 12:56:32;;;;;;;13.40;4.93;;;;;;;3.38;80.58;100240.81;4995730;28;20113;-79
2021/01/13 12:59:00;;;;;;;14.55;4.60;;;;;;;3.43;80.11;100251.25;4997349;28;20065;-79
2021/01/13 13:01:28;;;;;;;12.30;5.40;;;;;;;3.31;80.26;100236.66;4995491;28;20058;-79
2021/01/13 13:03:54;;;;;;;12.70;4.93;;;;;;;3.49;80.07;100253.69;4996747;28;20042;-80
2021/01/13 13:06:30;;;;;;;13.70;5.68;;;;;;;3.55;80.14;100250.03;5017111;28;20073;-80
2021/01/13 13:08:58;;;;;;;10.88;4.63;;;;;;;3.76;79.35;100240.56;4998913;28;20050;-80
2021/01/13 13:11:25;;;;;;;13.93;5.15;;;;;;;3.73;80.08;100240.66;4996772;28;20061;-78
2021/01/13 13:13:55;;;;;;;17.35;6.05;;;;;;;3.91;80.33;100241.84;4997821;28;20047;-82
2021/01/13 13:16:23;;;;;;;12.82;4.88;;;;;;;3.87;79.98;100234.94;4997503;28;20105;-76
2021/01/13 13:18:52;;;;;;;13.60;5.10;;;;;;;3.84;79.89;100237.69;4996328;28;20046;-77
2021/01/13 13:21:20;;;;;;;12.07;4.97;;;;;;;3.76;80.22;100239.72;4997974;28;20049;-80
2021/01/13 13:23:46;;;;;;;12.38;5.53;;;;;;;3.71;80.44;100237.19;5027913;28;20392;-75
2021/01/13 13:26:13;;;;;;;11.73;5.15;;;;;;;3.66;80.92;100223.31;4996725;28;20133;-80
2021/01/13 13:28:41;;;;;;;18.65;6.10;;;;;;;3.58;80.13;100225.28;4996752;28;20101;-80
2021/01/13 13:31:10;;;;;;;11.50;5.45;;;;;;;3.66;79.82;100237.34;4996584;28;20444;-77
2021/01/13 13:33:38;;;;;;;9.02;5.25;;;;;;;3.70;81.08;100229.34;4996671;28;20050;-78
2021/01/13 13:36:06;;;;;;;18.85;5.70;;;;;;;3.76;80.26;100218.59;4995638;28;20045;-82
2021/01/13 13:38:32;;;;;;;12.48;5.10;;;;;;;3.69;80.21;100194.16;4995789;28;20495;-78
2021/01/13 13:40:59;;;;;;;10.95;5.38;;;;;;;3.87;79.77;100205.88;4996352;28;20053;-75
2021/01/13 13:43:25;;;;;;;15.63;6.57;;;;;;;3.87;80.36;100205.88;4996747;28;20184;-80
2021/01/13 13:45:52;;;;;;;14.77;5.70;;;;;;;3.99;80.42;100209.06;4995764;28;20046;-78
2021/01/13 13:48:18;;;;;;;8.48;4.88;;;;;;;4.01;78.62;100201.94;5027562;28;20439;-77
2021/01/13 13:50:45;;;;;;;9.07;4.97;;;;;;;4.04;77.05;100202.69;4996518;28;20428;-77
2021/01/13 13:53:11;;;;;;;11.45;4.80;;;;;;;3.94;77.44;100202.13;4995370;28;20053;-76
2021/01/13 13:55:38;;;;;;;9.90;4.85;;;;;;;3.92;78.46;100203.97;4995707;28;20125;-76
2021/01/13 13:58:05;;;;;;;8.23;4.70;;;;;;;3.96;77.19;100203.88;4995881;28;20116;-78
2021/01/13 14:00:35;;;;;;;14.52;5.47;;;;;;;3.85;77.55;100207.72;4995970;28;20133;-78
2021/01/13 14:03:02;;;;;;;18.17;5.72;;;;;;;3.78;77.22;100191.22;4995131;28;20061;-79
2021/01/13 14:05:28;;;;;;;12.52;6.35;;;;;;;3.87;77.46;100197.97;5024667;28;20046;-80
2021/01/13 14:07:54;;;;;;;11.65;5.47;;;;;;;3.83;77.58;100191.09;5011883;28;20442;-79
2021/01/13 14:10:21;;;;;;;13.05;5.40;;;;;;;3.73;78.66;100173.78;4995255;28;20065;-79
2021/01/13 14:12:50;;;;;;;11.82;5.18;;;;;;;3.78;78.03;100188.59;4994264;28;20086;-79
2021/01/13 14:15:18;;;;;;;13.85;5.75;;;;;;;3.87;78.38;100183.91;4995592;28;20344;-81
2021/01/13 14:17:48;;;;;;;12.13;4.90;;;;;;;3.81;78.14;100184.97;4996078;28;20053;-78
2021/01/13 14:20:14;;;;;;;10.90;5.93;;;;;;;3.85;78.93;100189.25;5011457;28;20054;-79
2021/01/13 14:22:42;;;;;;;14.20;6.00;;;;;;;3.84;79.51;100190.16;5008641;28;20050;-76
2021/01/13 14:25:09;;;;;;;10.00;6.32;;;;;;;3.85;79.47;100186.59;4997064;28;20050;-78
2021/01/13 14:27:38;;;;;;;17.77;6.18;;;;;;;3.79;79.90;100192.09;4995741;28;20050;-77
2021/01/13 14:30:06;;;;;;;18.40;6.95;;;;;;;3.80;80.42;100188.53;4995537;28;20441;-76
2021/01/13 14:32:33;;;;;;;11.20;6.10;;;;;;;3.85;80.20;100189.25;4994508;28;20104;-80
2021/01/13 14:35:04;;;;;;;14.57;6.65;;;;;;;3.84;80.32;100181.38;4994032;28;20055;-79
2021/01/13 14:37:34;;;;;;;14.73;6.00;;;;;;;3.79;80.65;100173.59;4995358;28;20058;-77
2021/01/13 14:40:01;;;;;;;14.85;7.10;;;;;;;3.76;80.96;100174.56;4995467;28;20056;-75
2021/01/13 14:42:27;;;;;;;12.20;7.03;;;;;;;3.85;81.93;100180.44;4996946;28;20061;-76
2021/01/13 14:44:56;;;;;;;12.52;6.70;;;;;;;3.69;81.15;100166.91;4996755;28;20046;-77
2021/01/13 14:47:22;;;;;;;11.43;6.85;;;;;;;3.82;81.71;100180.56;4996365;28;20046;-73
2021/01/13 14:49:48;;;;;;;11.52;6.43;;;;;;;3.66;81.17;100152.03;4995267;28;20050;-76
2021/01/13 14:52:14;;;;;;;16.05;7.28;;;;;;;3.62;82.26;100169.75;4995867;28;20352;-77
2021/01/13 14:54:41;;;;;;;16.10;7.47;;;;;;;3.67;82.16;100162.50;4994711;28;20055;-78
2021/01/13 14:57:10;;;;;;;10.65;7.25;;;;;;;3.67;82.27;100161.66;4994911;28;20057;-75
2021/01/13 14:59:37;;;;;;;18.30;7.30;;;;;;;3.68;82.70;100168.66;5026699;28;20089;-75
2021/01/13 15:02:04;;;;;;;17.73;8.45;;;;;;;3.60;83.07;100174.19;4994795;28;20054;-74
2021/01/13 15:04:30;;;;;;;19.15;7.55;;;;;;;3.59;83.20;100175.09;5025969;28;20440;-73
2021/01/13 15:06:58;;;;;;;12.63;7.43;;;;;;;3.60;83.55;100174.19;4994590;28;20056;-75
2021/01/13 15:09:30;;;;;;;15.45;7.50;;;;;;;3.57;83.63;100160.22;4994568;28;20404;-75
2021/01/13 15:11:57;;;;;;;19.63;7.93;;;;;;;3.53;83.88;100154.19;5025819;28;20050;-74
2021/01/13 15:14:24;;;;;;;16.05;8.07;;;;;;;3.63;84.05;100175.88;4997309;28;20387;-75
2021/01/13 15:16:51;;;;;;;21.33;8.07;;;;;;;3.63;84.07;100184.66;4998461;28;20642;-75
2021/01/13 15:19:17;;;;;;;18.98;8.15;;;;;;;3.59;84.54;100182.19;5001769;28;20054;-76
2021/01/13 15:21:44;;;;;;;19.40;7.28;;;;;;;3.58;83.89;100173.38;5012128;28;20096;-80
2021/01/13 15:24:16;;;;;;;18.95;7.50;;;;;;;3.59;83.53;100184.81;4999763;28;20054;-78
2021/01/13 15:26:43;;;;;;;17.83;8.05;;;;;;;3.47;84.28;100184.28;4997741;28;20064;-80
2021/01/13 15:29:09;;;;;;;16.10;7.35;;;;;;;3.43;84.13;100176.50;4998212;28;20093;-77
2021/01/13 15:31:37;;;;;;;15.13;7.53;;;;;;;3.37;84.72;100178.41;4997495;28;20105;-76
2021/01/13 15:34:04;;;;;;;19.45;8.93;;;;;;;3.31;84.97;100175.97;4998184;28;20447;-76
2021/01/13 15:36:31;;;;;;;22.40;8.77;;;;;;;3.38;84.52;100182.78;4998412;28;20448;-76
2021/01/13 15:38:57;;;;;;;21.63;9.77;;;;;;;3.32;84.77;100171.56;4998556;28;20062;-79
2021/01/13 15:41:24;;;;;;;16.95;7.97;;;;;;;3.32;85.23;100166.28;4998604;28;20046;-76
2021/01/13 15:43:51;;;;;;;17.40;9.10;;;;;;;3.28;85.16;100165.53;4996891;28;20050;-78
2021/01/13 15:46:24;;;;;;;13.27;8.50;;;;;;;3.22;85.41;100168.34;4997017;28;20048;-75
2021/01/13 15:48:52;;;;;;;22.08;9.18;;;;;;;3.22;85.12;100171.84;4998334;28;20046;-76
2021/01/13 15:51:19;;;;;;;15.77;8.20;;;;;;;3.21;85.86;100161.34;5029273;28;20384;-77
2021/01/13 15:53:46;;;;;;;16.77;8.30;;;;;;;3.26;85.40;100164.69;4997787;28;20042;-76
2021/01/13 15:56:14;;;;;;;17.88;8.43;;;;;;;3.22;85.77;100160.44;4997537;28;20073;-78
2021/01/13 15:59:00;;;;;;;18.70;8.57;;;;;;;3.27;85.63;100161.13;4997903;28;20054;-76
2021/01/13 16:01:27;;;;;;;15.73;8.52;;;;;;;3.15;85.93;100136.00;5029579;28;20084;-76
2021/01/13 16:03:54;;;;;;;21.13;8.77;;;;;;;3.28;86.19;100160.25;5029202;28;20136;-76
2021/01/13 16:06:20;;;;;;;18.50;8.80;;;;;;;3.22;86.30;100166.56;4997920;28;20403;-78
2021/01/13 16:08:50;;;;;;;16.85;9.52;;;;;;;3.22;86.22;100165.72;5000138;28;20062;-75
2021/01/13 16:11:17;;;;;;;21.92;9.00;;;;;;;3.24;86.08;100155.97;5000341;28;20050;-83
2021/01/13 16:13:45;;;;;;;19.48;9.65;;;;;;;3.14;86.69;100139.56;4998567;28;20054;-76
2021/01/13 16:16:13;;;;;;;20.40;9.45;;;;;;;3.23;86.29;100155.09;4997680;28;20060;-77
2021/01/13 16:18:41;;;;;;;18.13;8.82;;;;;;;3.10;85.82;100146.69;4998146;28;20054;-78
2021/01/13 16:21:10;;;;;;;21.65;10.15;;;;;;;3.13;86.95;100161.56;4997521;28;20058;-77
2021/01/13 16:23:37;;;;;;;19.02;9.43;;;;;;;3.11;86.74;100158.97;4997367;28;20047;-78
2021/01/13 16:26:04;;;;;;;19.60;9.60;;;;;;;3.11;87.38;100160.75;4997660;28;20062;-79
2021/01/13 16:28:31;;;;;;;18.33;9.70;;;;;;;3.03;87.09;100155.72;4996921;28;20058;-78
2021/01/13 16:30:58;;;;;;;21.10;9.98;;;;;;;3.11;87.06;100166.88;4997295;28;20436;-77
2021/01/13 16:33:38;;;;;;;20.63;11.20;;;;;;;3.05;87.42;100167.06;4997054;28;20053;-77
2021/01/13 16:36:15;;;;;;;21.63;10.25;;;;;;;3.00;87.92;100150.53;4996654;28;20069;-77
2021/01/13 16:38:43;;;;;;;21.08;10.70;;;;;;;3.12;87.27;100146.66;4997574;28;20073;-78
2021/01/13 16:41:13;;;;;;;24.27;11.93;;;;;;;3.11;87.52;100152.84;5022187;28;20368;-77
2021/01/13 16:43:54;;;;;;;20.67;10.10;;;;;;;3.14;87.52;100149.25;5027921;28;20050;-77
2021/01/13 16:46:22;;;;;;;20.35;10.00;;;;;;;3.07;87.74;100145.94;4996299;28;20062;-76
2021/01/13 16:48:49;;;;;;;21.90;11.30;;;;;;;2.96;87.94;100133.06;4996730;28;20046;-77
2021/01/13 16:51:16;;;;;;;22.90;11.50;;;;;;;3.01;87.94;100131.16;4996914;28;20061;-77
2021/01/13 16:53:42;;;;;;;20.90;10.68;;;;;;;3.09;88.24;100152.00;4997247;28;20058;-76
2021/01/13 16:56:12;;;;;;;23.10;11.07;;;;;;;3.06;88.55;100158.25;4996566;28;20453;-78
2021/01/13 16:58:41;;;;;;;20.92;11.25;;;;;;;3.00;88.59;100150.53;4995491;28;20989;-77
2021/01/13 17:01:07;;;;;;;21.13;12.48;;;;;;;3.05;88.70;100159.16;4993984;28;20051;-76
2021/01/13 17:03:38;;;;;;;23.33;11.25;;;;;;;3.07;87.81;100146.81;4994152;28;20042;-76
2021/01/13 17:06:04;;;;;;;27.05;12.02;;;;;;;3.04;88.57;100130.22;4996732;28;20475;-75
2021/01/13 17:08:31;;;;;;;24.42;12.52;;;;;;;3.00;88.18;100132.09;4996504;28;20440;-76
2021/01/13 17:10:57;;;;;;;23.95;11.23;;;;;;;2.93;88.56;100126.13;4978814;28;20062;-76
2021/01/13 17:13:27;;;;;;;21.42;12.50;;;;;;;2.96;88.79;100127.81;4993799;28;20051;-76
2021/01/13 17:16:03;;;;;;;28.42;12.65;;;;;;;2.92;88.91;100131.44;4995921;28;20061;-76
2021/01/13 17:18:31;;;;;;;23.00;12.23;;;;;;;2.93;89.02;100133.16;4995085;28;20490;-76
2021/01/13 17:20:57;;;;;;;22.15;11.77;;;;;;;2.98;88.60;100144.44;5011942;28;20050;-76
2021/01/13 17:23:24;;;;;;;23.23;11.88;;;;;;;2.93;88.87;100125.22;4996385;28;20065;-76
2021/01/13 17:25:51;;;;;;;26.80;12.27;;;;;;;2.91;88.52;100130.56;4996076;28;20132;-76
2021/01/13 17:28:19;;;;;;;31.27;12.70;;;;;;;2.85;88.91;100130.75;4996416;28;20112;-74
2021/01/13 17:30:47;;;;;;;21.85;10.98;;;;;;;2.88;88.87;100127.16;5000589;28;20042;-76
2021/01/13 17:33:14;;;;;;;26.48;11.38;;;;;;;2.92;88.18;100131.44;4994539;28;20053;-78
2021/01/13 17:35:42;;;;;;;24.27;12.02;;;;;;;2.85;88.26;100126.31;4995309;28;20109;-76
2021/01/13 17:38:11;;;;;;;19.65;10.55;;;;;;;2.83;88.05;100127.31;4995226;28;20100;-78
2021/01/13 17:40:39;;;;;;;32.67;13.02;;;;;;;2.82;88.43;100126.44;4992236;28;20047;-88
2021/01/13 17:43:07;;;;;;;24.83;11.85;;;;;;;2.87;88.47;100143.91;4995290;28;20046;-78
2021/01/13 17:45:36;;;;;;;24.13;10.93;;;;;;;2.75;88.21;100135.44;4994636;28;20125;-78
2021/01/13 17:48:07;;;;;;;23.75;11.82;;;;;;;2.65;88.51;100103.22;4996115;28;20054;-81
2021/01/13 17:50:34;;;;;;;28.23;13.10;;;;;;;2.67;88.33;100111.09;4995856;28;20054;-78
2021/01/13 17:53:04;;;;;;;22.50;11.45;;;;;;;2.62;87.74;100097.16;4995299;28;20077;-75
2021/01/13 17:55:35;;;;;;;22.33;12.20;;;;;;;2.84;88.39;100143.06;4994580;28;20065;-75
2021/01/13 17:58:01;;;;;;;28.10;12.48;;;;;;;2.81;88.61;100156.34;4995218;28;20059;-74
2021/01/13 18:00:28;;;;;;;30.65;11.57;;;;;;;2.79;88.49;100141.47;4994593;28;20085;-74
2021/01/13 18:02:57;;;;;;;29.85;13.70;;;;;;;2.80;88.94;100145.84;4995339;28;20050;-74
2021/01/13 18:05:31;;;;;;;29.88;13.93;;;;;;;2.78;88.88;100145.88;4994996;28;20046;-74
2021/01/13 18:08:02;;;;;;;23.30;12.88;;;;;;;2.81;88.67;100145.81;4994741;28;20054;-74
2021/01/13 18:10:29;;;;;;;28.92;12.82;;;;;;;2.72;88.38;100130.22;4995192;28;20058;-74
2021/01/13 18:12:56;;;;;;;25.58;12.43;;;;;;;2.77;88.48;100138.88;4994119;28;20050;-73
2021/01/13 18:15:25;;;;;;;29.23;14.07;;;;;;;2.76;88.50;100142.44;4995481;28;20046;-74
2021/01/13 18:18:01;;;;;;;28.98;12.88;;;;;;;2.79;88.63;100152.88;4991922;28;20066;-74
2021/01/13 18:20:29;;;;;;;20.67;12.15;;;;;;;2.74;88.43;100133.72;4994509;28;20103;-74
2021/01/13 18:22:55;;;;;;;27.38;13.07;;;;;;;2.79;88.44;100147.59;4994831;28;20054;-74
2021/01/13 18:25:22;;;;;;;22.05;11.25;;;;;;;2.82;88.10;100144.88;4992407;28;20436;-75
2021/01/13 18:27:48;;;;;;;30.35;12.48;;;;;;;2.58;88.10;100106.94;4995283;28;20054;-75
2021/01/13 18:30:17;;;;;;;20.05;11.65;;;;;;;2.79;88.58;100146.75;4995573;28;20112;-76
2021/01/13 18:32:48;;;;;;;26.23;12.52;;;;;;;2.75;88.40;100140.69;4995362;28;20429;-76
2021/01/13 18:35:17;;;;;;;28.52;12.40;;;;;;;2.80;88.28;100140.56;5026757;28;20062;-78
2021/01/13 18:37:58;;;;;;;30.55;12.65;;;;;;;2.76;88.31;100142.44;4994240;28;20054;-76
2021/01/13 18:40:26;;;;;;;25.77;13.80;;;;;;;2.83;88.10;100140.50;5000470;28;20076;-75
2021/01/13 18:43:13;;;;;;;28.42;12.55;;;;;;;2.80;88.36;100166.91;4999980;28;20049;-75
2021/01/13 18:45:43;;;;;;;25.60;13.52;;;;;;;2.84;88.08;100158.03;5008649;28;20057;-76
2021/01/13 18:48:13;;;;;;;29.10;13.43;;;;;;;2.74;88.57;100146.00;4998455;28;20046;-76
2021/01/13 18:50:40;;;;;;;23.80;12.93;;;;;;;2.89;88.53;100164.00;4999546;28;20054;-79
2021/01/13 18:53:06;;;;;;;24.60;13.65;;;;;;;2.87;88.07;100157.94;4999988;28;20050;-77
2021/01/13 18:55:35;;;;;;;24.20;13.85;;;;;;;2.87;88.58;100168.47;4997884;28;20050;-76
2021/01/13 18:58:02;;;;;;;32.33;14.10;;;;;;;2.83;88.78;100158.94;4996550;28;20141;-76
2021/01/13 19:00:32;;;;;;;24.83;13.23;;;;;;;2.82;88.64;100147.53;4999305;28;20133;-76
2021/01/13 19:03:03;;;;;;;27.10;14.30;;;;;;;2.80;88.97;100144.06;4998973;28;20094;-76
2021/01/13 19:05:35;;;;;;;30.45;13.60;;;;;;;2.79;88.93;100157.28;5030946;28;20046;-78
2021/01/13 19:08:02;;;;;;;27.73;11.70;;;;;;;2.71;89.49;100141.69;4999112;28;20050;-76
2021/01/13 19:10:29;;;;;;;29.83;14.80;;;;;;;2.77;89.81;100161.75;5017005;28;20061;-76
2021/01/13 19:12:55;;;;;;;25.85;15.23;;;;;;;2.70;89.66;100176.88;4998800;28;20352;-76
2021/01/13 19:15:25;;;;;;;31.38;15.88;;;;;;;2.86;89.80;100172.03;4981644;28;20053;-76
2021/01/13 19:17:52;;;;;;;31.63;17.05;;;;;;;2.87;89.69;100188.72;4998491;28;20046;-75
2021/01/13 19:20:19;;;;;;;32.13;16.42;;;;;;;2.83;89.92;100178.25;4991531;28;20100;-77
2021/01/13 19:22:50;;;;;;;33.95;16.80;;;;;;;2.84;89.74;100181.75;4979399;28;20054;-77
2021/01/13 19:25:16;;;;;;;36.03;16.58;;;;;;;2.80;90.08;100175.72;5010078;28;20055;-76
2021/01/13 19:27:44;;;;;;;35.70;18.52;;;;;;;2.83;89.98;100196.69;4981805;28;20164;-77
2021/01/13 19:30:13;;;;;;;32.58;16.98;;;;;;;2.87;90.34;100186.06;4997703;28;20491;-77
2021/01/13 19:32:43;;;;;;;29.52;16.00;;;;;;;2.92;89.95;100178.88;4995461;28;20104;-76
2021/01/13 19:35:17;;;;;;;37.72;18.05;;;;;;;2.94;90.01;100198.19;5029973;28;20046;-76
2021/01/13 19:37:51;;;;;;;28.77;17.17;;;;;;;2.91;89.70;100204.41;4996991;28;20101;-76
2021/01/13 19:40:20;;;;;;;27.75;17.00;;;;;;;2.91;90.08;100198.25;4983520;28;20046;-76
2021/01/13 19:43:00;;;;;;;29.77;16.00;;;;;;;2.98;89.87;100195.41;4998302;28;20148;-77
2021/01/13 19:45:28;;;;;;;26.52;15.57;;;;;;;2.91;90.23;100203.53;4996608;28;20424;-77
2021/01/13 19:48:03;;;;;;;28.70;16.38;;;;;;;2.87;90.29;100196.63;5030137;28;20176;-75
2021/01/13 19:50:30;;;;;;;34.30;15.88;;;;;;;2.95;89.58;100195.47;4997821;28;20057;-75
2021/01/13 19:53:01;;;;;;;33.05;18.13;;;;;;;2.89;90.03;100189.53;4996308;28;20344;-74
2021/01/13 19:55:28;;;;;;;27.77;16.08;;;;;;;2.85;89.83;100173.78;4996649;28;20073;-75
2021/01/13 19:57:55;;;;;;;26.65;15.98;;;;;;;2.85;89.90;100181.69;4996589;28;20439;-76
2021/01/13 20:00:21;;;;;;;40.28;18.58;;;;;;;3.00;89.86;100187.44;4995839;28;20077;-76
2021/01/13 20:02:48;;;;;;;32.95;16.05;;;;;;;3.06;89.11;100187.25;5014959;28;20459;-76
2021/01/13 20:05:16;;;;;;;30.65;17.88;;;;;;;2.99;89.48;100189.22;4978168;28;20054;-75
2021/01/13 20:07:43;;;;;;;38.05;16.88;;;;;;;2.94;89.54;100198.19;4993246;28;20081;-76
2021/01/13 20:10:11;;;;;;;32.10;17.10;;;;;;;2.89;89.94;100194.81;4997770;28;20396;-74
2021/01/13 20:12:41;;;;;;;32.75;17.20;;;;;;;2.85;89.89;100186.97;4998954;28;20043;-77
2021/01/13 20:15:09;;;;;;;29.77;15.52;;;;;;;2.86;89.87;100182.56;4996566;28;20364;-77
2021/01/13 20:17:40;;;;;;;34.35;17.48;;;;;;;2.76;89.90;100174.06;5013259;28;20136;-77
2021/01/13 20:20:09;;;;;;;31.05;16.75;;;;;;;2.88;90.23;100195.72;4996657;28;20104;-76
2021/01/13 20:22:38;;;;;;;34.03;16.77;;;;;;;2.70;89.65;100169.84;4999001;28;20356;-76
2021/01/13 20:25:12;;;;;;;33.83;17.05;;;;;;;2.75;90.12;100180.25;4997099;28;20055;-76
2021/01/13 20:27:42;;;;;;;32.20;16.50;;;;;;;2.91;89.94;100198.25;4995914;28;20448;-76
2021/01/13 20:30:10;;;;;;;32.60;16.27;;;;;;;3.00;89.35;100203.28;4996569;28;20054;-75
2021/01/13 20:32:42;;;;;;;34.85;17.23;;;;;;;3.00;89.13;100203.28;4995334;28;20056;-77
2021/01/13 20:35:08;;;;;;;;;;;;;;;2.91;89.64;100207.03;4998037;28;20047;-75
2021/01/13 20:37:36;;;;;;;32.83;14.88;;;;;;;2.93;88.99;100223.66;4997031;28;19926;-76
2021/01/13 20:40:07;;;;;;;28.60;15.55;;;;;;;2.92;89.32;100216.66;4996140;28;20444;-75
2021/01/13 20:42:33;;;;;;;;;;;;;;;2.95;89.02;100226.25;4996949;28;20061;-76
2021/01/13 20:45:01;;;;;;;40.05;16.33;;;;;;;2.98;89.36;100220.88;5002000;28;20001;-75
2021/01/13 20:47:27;;;;;;;26.58;15.88;;;;;;;2.92;89.63;100211.41;4998367;28;20058;-75
2021/01/13 20:49:53;;;;;;;30.90;17.13;;;;;;;2.85;89.80;100229.13;4998674;28;20105;-76
2021/01/13 20:52:20;;;;;;;33.60;16.67;;;;;;;2.94;89.47;100224.53;4998877;28;20057;-77
2021/01/13 20:54:47;;;;;;;27.58;15.00;;;;;;;2.93;89.34;100217.50;4999727;28;20050;-75
2021/01/13 20:57:22;;;;;;;19.80;13.32;;;;;;;2.97;88.38;100205.97;4997946;28;20074;-77
2021/01/13 20:59:49;;;;;;;28.63;14.93;;;;;;;2.91;87.70;100195.59;4997679;28;20127;-75
2021/01/13 21:02:19;;;;;;;26.85;14.48;;;;;;;3.01;88.52;100197.09;4996952;28;20107;-75
2021/01/13 21:04:45;;;;;;;29.60;14.48;;;;;;;2.99;88.17;100196.25;4997452;28;20050;-77
2021/01/13 21:07:12;;;;;;;29.42;14.73;;;;;;;3.10;87.39;100212.63;4996717;28;20050;-76
2021/01/13 21:09:40;;;;;;;36.85;13.57;;;;;;;3.00;87.01;100224.38;4994223;28;20345;-76
2021/01/13 21:12:07;;;;;;;29.70;13.25;;;;;;;2.99;87.25;100217.34;4995672;28;20050;-76
2021/01/13 21:14:34;;;;;;;28.88;13.13;;;;;;;3.02;87.34;100230.44;4996392;28;20058;-76
2021/01/13 21:17:05;;;;;;;28.77;13.15;;;;;;;3.00;87.23;100234.91;4996275;28;20061;-76
2021/01/13 21:19:31;;;;;;;28.63;13.48;;;;;;;3.05;87.30;100243.53;4996550;28;20054;-75
2021/01/13 21:21:58;;;;;;;27.45;14.50;;;;;;;3.12;86.68;100253.00;4996342;28;20144;-75
2021/01/13 21:24:24;;;;;;;36.78;15.77;;;;;;;3.01;87.38;100241.91;4995896;28;20050;-75
2021/01/13 21:26:58;;;;;;;26.55;14.27;;;;;;;3.05;87.42;100243.53;4994980;28;20058;-76
2021/01/13 21:29:25;;;;;;;33.15;16.25;;;;;;;3.01;86.72;100239.28;4995233;28;20444;-79
2021/01/13 21:31:52;;;;;;;25.75;13.60;;;;;;;2.96;87.29;100209.53;4994710;28;20046;-81
2021/01/13 21:34:20;;;;;;;26.98;14.68;;;;;;;2.98;86.75;100211.22;4996872;28;20062;-76
2021/01/13 21:36:47;;;;;;;27.88;14.25;;;;;;;3.09;86.82;100229.38;4996483;28;20054;-75
2021/01/13 21:39:13;;;;;;;33.65;15.00;;;;;;;3.14;87.40;100231.03;4994055;28;20104;-76
2021/01/13 21:41:42;;;;;;;25.83;15.13;;;;;;;3.08;87.35;100230.28;4976927;28;20463;-77
2021/01/13 21:44:10;;;;;;;29.27;14.70;;;;;;;3.05;87.99;100232.16;4994620;28;20137;-76
2021/01/13 21:46:45;;;;;;;30.42;16.05;;;;;;;3.00;87.88;100219.09;4976508;28;20391;-77
2021/01/13 21:49:11;;;;;;;33.97;15.93;;;;;;;3.02;88.17;100238.38;4994697;28;20050;-76
2021/01/13 21:51:48;;;;;;;28.80;16.02;;;;;;;3.08;87.92;100247.88;4995672;28;20689;-76
2021/01/13 21:54:16;;;;;;;32.40;15.38;;;;;;;2.95;88.30;100227.13;4994032;28;20428;-75
2021/01/13 21:56:42;;;;;;;30.27;16.05;;;;;;;3.02;88.53;100242.75;4994408;28;20058;-76